Terminal Aerodrome Forecast
Issued by NWS

Home | Current Version | Previous Version | Text Only | Print | Product List | Glossary Off
Versions: 1 2 3 4 5 6 7 8 9 10 11 12 13 14 15 16

000
FTUS43 KMPX 180500
TAFRNH
TAF
KRNH 180529Z 1806/1906 33008KT P6SM BKN040
     FM180800 35009KT P6SM OVC025
     FM181500 36005KT P6SM SCT025
     FM182100 VRB03KT P6SM SKC
     FM190400 16004KT P6SM SCT250=

USA.gov is the U.S. government's official web portal to all federal, state and local government web resources and services.